Time;durP1;ratioP1;P1;durP2;ratioP2;P2;SDS_P1;SDS_P2;PMS_P1;PMS_P2;Temp;Humidity;BMP_temperature;BMP_pressure;BME280_temperature;BME280_humidity;BME280_pressure;Samples;Min_cycle;Max_cycle;Signal;HPM_P1;HPM_P2
2023/09/29 00:00:26;;;;;;;6.83;5.63;;;16.80;99.90;;;;;;4985512;28;20462;-71
2023/09/29 00:02:54;;;;;;;7.00;5.63;;;16.80;99.90;;;;;;4985276;28;20991;-71
2023/09/29 00:05:21;;;;;;;7.50;4.80;;;16.80;99.90;;;;;;4984865;28;20438;-71
2023/09/29 00:07:47;;;;;;;5.83;5.30;;;16.80;99.90;;;;;;4985488;28;20685;-72
2023/09/29 00:10:16;;;;;;;7.33;5.43;;;16.70;99.90;;;;;;4985139;28;20481;-71
2023/09/29 00:12:42;;;;;;;11.83;5.57;;;16.80;99.90;;;;;;4983531;28;20585;-71
2023/09/29 00:15:08;;;;;;;5.73;5.20;;;16.70;99.90;;;;;;4984864;28;20431;-72
2023/09/29 00:17:34;;;;;;;7.07;5.90;;;16.80;99.90;;;;;;4984470;28;22018;-71
2023/09/29 00:20:00;;;;;;;5.50;5.03;;;16.70;99.90;;;;;;4989781;28;20435;-72
2023/09/29 00:22:26;;;;;;;5.40;4.90;;;16.70;99.90;;;;;;4991564;28;20207;-71
2023/09/29 00:24:52;;;;;;;7.40;5.20;;;16.70;99.90;;;;;;4986789;28;20434;-72
2023/09/29 00:27:17;;;;;;;5.63;5.13;;;16.70;99.90;;;;;;4986179;28;20434;-71
2023/09/29 00:29:43;;;;;;;6.53;5.13;;;16.70;99.90;;;;;;4988880;28;20209;-72
2023/09/29 00:32:09;;;;;;;5.40;4.90;;;16.90;99.90;;;;;;4988403;28;20595;-72
2023/09/29 00:34:36;;;;;;;5.90;5.20;;;16.70;99.90;;;;;;4985089;28;20218;-71
2023/09/29 00:37:05;;;;;;;6.40;4.60;;;16.70;99.90;;;;;;4992419;28;20441;-72
2023/09/29 00:39:31;;;;;;;7.47;5.00;;;16.60;99.90;;;;;;4988607;28;20434;-71
2023/09/29 00:41:56;;;;;;;5.20;4.80;;;16.60;99.90;;;;;;4990017;28;20437;-72
2023/09/29 00:44:21;;;;;;;9.73;5.40;;;16.60;99.90;;;;;;4990010;28;20219;-71
2023/09/29 00:46:47;;;;;;;9.33;5.70;;;16.70;99.90;;;;;;4992413;28;20559;-72
2023/09/29 00:49:14;;;;;;;6.57;4.83;;;16.50;99.90;;;;;;4989573;28;20737;-71
2023/09/29 00:51:39;;;;;;;5.07;4.60;;;16.50;99.90;;;;;;4986792;28;20594;-72
2023/09/29 00:54:08;;;;;;;6.20;5.60;;;16.50;99.90;;;;;;4981074;28;20470;-71
2023/09/29 00:56:35;;;;;;;6.30;5.43;;;16.50;99.90;;;;;;4992355;28;20199;-72
2023/09/29 00:59:01;;;;;;;6.00;4.10;;;16.50;99.90;;;;;;5004901;28;20591;-72
2023/09/29 01:01:27;;;;;;;5.27;4.13;;;16.50;99.90;;;;;;5005328;28;20414;-72
2023/09/29 01:03:52;;;;;;;4.77;4.43;;;16.50;99.90;;;;;;5012750;28;20560;-71
2023/09/29 01:06:18;;;;;;;5.00;4.60;;;16.50;99.90;;;;;;4995268;28;20286;-71
2023/09/29 01:08:44;;;;;;;5.30;4.83;;;16.40;99.90;;;;;;5005720;28;20690;-71
2023/09/29 01:11:10;;;;;;;5.47;4.97;;;16.40;99.90;;;;;;5006778;28;20590;-72
2023/09/29 01:13:40;;;;;;;4.70;4.30;;;16.40;99.90;;;;;;4988645;28;20468;-72
2023/09/29 01:16:06;;;;;;;4.73;4.03;;;16.30;99.90;;;;;;4999368;28;20225;-71
2023/09/29 01:18:33;;;;;;;6.27;5.70;;;16.30;99.90;;;;;;4996941;28;20438;-71
2023/09/29 01:20:59;;;;;;;4.93;4.43;;;16.20;99.90;;;;;;5004069;28;20437;-72
2023/09/29 01:23:33;;;;;;;6.73;5.07;;;16.20;99.90;;;;;;4995909;28;20446;-71
2023/09/29 01:25:59;;;;;;;5.43;4.93;;;16.20;99.90;;;;;;4991275;28;20568;-72
2023/09/29 01:28:25;;;;;;;5.17;4.67;;;16.20;99.90;;;;;;4990953;28;20521;-72
2023/09/29 01:30:53;;;;;;;6.87;4.73;;;16.10;99.90;;;;;;4989978;28;20533;-72
2023/09/29 01:33:21;;;;;;;4.97;4.47;;;16.10;99.90;;;;;;4984997;28;20782;-72
2023/09/29 01:35:48;;;;;;;4.60;4.30;;;16.00;99.90;;;;;;4985768;28;20999;-72
2023/09/29 01:38:14;;;;;;;5.80;5.30;;;16.00;99.90;;;;;;4989847;28;20430;-71
2023/09/29 01:40:40;;;;;;;5.20;4.80;;;16.00;99.90;;;;;;4990880;28;20901;-72
2023/09/29 01:43:06;;;;;;;13.53;4.77;;;16.00;99.90;;;;;;4987650;28;20282;-71
2023/09/29 01:45:32;;;;;;;5.40;4.60;;;15.90;99.90;;;;;;4986203;28;20521;-73
2023/09/29 01:48:00;;;;;;;5.90;5.07;;;16.00;99.90;;;;;;4989018;28;20186;-74
2023/09/29 01:50:26;;;;;;;5.20;4.70;;;15.90;99.90;;;;;;4990648;28;20843;-71
2023/09/29 01:52:52;;;;;;;6.50;5.40;;;15.90;99.90;;;;;;4983081;28;20541;-74
2023/09/29 01:55:23;;;;;;;5.63;5.03;;;15.90;99.90;;;;;;4980813;28;20267;-71
2023/09/29 01:57:51;;;;;;;6.37;4.73;;;15.90;99.90;;;;;;4983490;28;20180;-74
2023/09/29 02:00:24;;;;;;;6.13;4.80;;;15.80;99.90;;;;;;4981945;28;20441;-73
2023/09/29 02:02:51;;;;;;;6.23;4.80;;;15.80;99.90;;;;;;4982479;28;20466;-74
2023/09/29 02:05:17;;;;;;;4.73;4.33;;;15.70;99.90;;;;;;4982369;28;20445;-73
2023/09/29 02:07:46;;;;;;;5.10;4.60;;;15.70;99.90;;;;;;4984449;28;20940;-73
2023/09/29 02:10:12;;;;;;;5.57;5.07;;;15.70;99.90;;;;;;4981719;28;20438;-71
2023/09/29 02:12:47;;;;;;;5.50;5.00;;;15.70;99.90;;;;;;4982814;28;20525;-73
2023/09/29 02:15:16;;;;;;;5.83;5.20;;;15.70;99.90;;;;;;4978555;28;20520;-73
2023/09/29 02:17:43;;;;;;;5.57;4.80;;;15.60;99.90;;;;;;4983137;28;20467;-72
2023/09/29 02:20:12;;;;;;;7.10;5.10;;;15.60;99.90;;;;;;4981749;28;20447;-72
2023/09/29 02:22:39;;;;;;;6.73;6.13;;;15.60;99.90;;;;;;4986043;28;20462;-72
2023/09/29 02:25:06;;;;;;;7.90;5.10;;;15.50;99.90;;;;;;4989501;28;20466;-72
2023/09/29 02:27:31;;;;;;;7.43;5.63;;;15.60;99.90;;;;;;4987079;28;20808;-72
2023/09/29 02:29:57;;;;;;;5.43;4.93;;;15.60;99.90;;;;;;4990822;28;20435;-72
2023/09/29 02:32:24;;;;;;;6.77;5.70;;;15.50;99.90;;;;;;4989351;28;20286;-72
2023/09/29 02:34:50;;;;;;;7.50;5.33;;;15.60;99.90;;;;;;4980587;28;20504;-71
2023/09/29 02:37:15;;;;;;;5.40;4.90;;;15.60;99.90;;;;;;4989160;28;20447;-71
2023/09/29 02:39:41;;;;;;;7.60;5.53;;;15.60;99.90;;;;;;4992268;28;20518;-72
2023/09/29 02:42:08;;;;;;;6.07;5.47;;;15.70;99.90;;;;;;4989582;28;20203;-71
2023/09/29 02:44:35;;;;;;;8.03;5.43;;;15.60;99.90;;;;;;4986376;28;20474;-72
2023/09/29 02:47:02;;;;;;;6.80;5.60;;;15.80;99.90;;;;;;4982524;28;20542;-72
2023/09/29 02:49:30;;;;;;;5.70;5.20;;;15.70;99.90;;;;;;4992078;28;20557;-72
2023/09/29 02:51:55;;;;;;;7.03;5.60;;;15.80;99.90;;;;;;4984630;28;20447;-71
2023/09/29 02:54:21;;;;;;;8.93;5.83;;;16.10;99.90;;;;;;4982288;28;20516;-74
2023/09/29 02:56:46;;;;;;;5.73;5.10;;;15.80;99.90;;;;;;4984033;28;20664;-71
2023/09/29 02:59:12;;;;;;;5.93;5.20;;;15.90;99.90;;;;;;4995380;28;20573;-72
2023/09/29 03:01:38;;;;;;;5.47;5.00;;;15.90;99.90;;;;;;4999780;28;20610;-72
2023/09/29 03:04:07;;;;;;;6.10;5.60;;;15.90;99.90;;;;;;5006875;28;20661;-72
2023/09/29 03:06:32;;;;;;;6.00;5.50;;;15.80;99.90;;;;;;5007518;28;20442;-72
2023/09/29 03:08:59;;;;;;;8.43;5.57;;;15.90;99.90;;;;;;5003550;28;20787;-72
2023/09/29 03:11:25;;;;;;;10.90;6.40;;;15.90;99.90;;;;;;5004857;28;20180;-72
2023/09/29 03:13:54;;;;;;;6.80;5.83;;;15.80;99.90;;;;;;5001239;28;20480;-72
2023/09/29 03:16:25;;;;;;;5.73;5.23;;;15.80;99.90;;;;;;4992363;28;20434;-72
2023/09/29 03:18:51;;;;;;;5.97;5.40;;;15.80;99.90;;;;;;4997101;28;20414;-72
2023/09/29 03:21:17;;;;;;;6.37;4.87;;;15.80;99.90;;;;;;5011704;28;20425;-72
2023/09/29 03:23:45;;;;;;;5.40;4.90;;;15.80;99.90;;;;;;4991234;28;20227;-72
2023/09/29 03:26:15;;;;;;;5.43;4.93;;;15.70;99.90;;;;;;4990344;28;20944;-71
2023/09/29 03:28:40;;;;;;;7.60;5.77;;;15.60;99.90;;;;;;4990702;28;20445;-72
2023/09/29 03:31:09;;;;;;;6.17;5.57;;;15.60;99.90;;;;;;4993470;28;20513;-72
2023/09/29 03:33:35;;;;;;;6.00;5.40;;;15.60;99.90;;;;;;4989472;28;20692;-72
2023/09/29 03:36:01;;;;;;;7.70;5.27;;;15.60;99.90;;;;;;4987878;28;20439;-72
2023/09/29 03:38:27;;;;;;;6.17;5.57;;;15.60;99.90;;;;;;4988321;28;20475;-72
2023/09/29 03:40:53;;;;;;;6.87;6.27;;;15.60;99.90;;;;;;4994002;28;20955;-71
2023/09/29 03:43:19;;;;;;;6.20;5.67;;;15.60;99.90;;;;;;4992876;28;20196;-72
2023/09/29 03:45:49;;;;;;;6.90;5.37;;;15.60;99.90;;;;;;4992816;28;21030;-72
2023/09/29 03:48:15;;;;;;;5.83;5.30;;;15.50;99.90;;;;;;4991459;28;20434;-71
2023/09/29 03:50:41;;;;;;;7.50;5.17;;;15.50;99.90;;;;;;4987699;28;20443;-72
2023/09/29 03:53:07;;;;;;;6.20;5.60;;;15.40;99.90;;;;;;4985007;28;20485;-71
2023/09/29 03:55:33;;;;;;;6.73;6.10;;;15.40;99.90;;;;;;4985634;28;20728;-72
2023/09/29 03:57:59;;;;;;;7.80;6.17;;;15.30;99.90;;;;;;4983543;28;20172;-72
2023/09/29 04:00:26;;;;;;;6.43;5.57;;;15.30;99.90;;;;;;4986058;28;20512;-72
2023/09/29 04:02:52;;;;;;;5.43;4.90;;;15.20;99.90;;;;;;4985769;28;20458;-71
2023/09/29 04:05:18;;;;;;;7.50;5.90;;;15.20;99.90;;;;;;4985535;28;20437;-72
2023/09/29 04:07:44;;;;;;;5.93;5.33;;;15.20;99.90;;;;;;4984767;28;20940;-72
2023/09/29 04:10:11;;;;;;;7.00;6.40;;;15.10;99.90;;;;;;4985485;28;20525;-71
2023/09/29 04:12:38;;;;;;;7.17;5.57;;;15.20;99.90;;;;;;4984781;28;20215;-71
2023/09/29 04:15:05;;;;;;;6.17;5.20;;;15.10;99.90;;;;;;4984656;28;20488;-71
2023/09/29 04:17:31;;;;;;;6.43;5.60;;;15.10;99.90;;;;;;4981650;28;20430;-72
2023/09/29 04:19:56;;;;;;;5.67;5.17;;;15.00;99.90;;;;;;4985172;28;20431;-72
2023/09/29 04:22:25;;;;;;;5.37;4.87;;;15.00;99.90;;;;;;4987047;28;20739;-72
2023/09/29 04:24:53;;;;;;;6.03;5.53;;;15.00;99.90;;;;;;4988979;28;20179;-72
2023/09/29 04:27:18;;;;;;;6.47;5.83;;;15.00;99.90;;;;;;4989884;28;20439;-71
2023/09/29 04:29:44;;;;;;;5.60;4.90;;;15.10;99.90;;;;;;4993123;28;20445;-72
2023/09/29 04:32:10;;;;;;;4.83;4.43;;;15.10;99.90;;;;;;4991043;28;20187;-72
2023/09/29 04:34:35;;;;;;;7.20;6.00;;;15.10;99.90;;;;;;4990540;28;20210;-73
2023/09/29 04:37:01;;;;;;;7.37;6.27;;;15.30;99.90;;;;;;4984626;28;20838;-73
2023/09/29 04:39:27;;;;;;;6.97;6.10;;;15.20;99.90;;;;;;4989862;28;20179;-74
2023/09/29 04:41:52;;;;;;;7.60;4.90;;;15.30;99.90;;;;;;4989199;28;20183;-73
2023/09/29 04:44:18;;;;;;;12.10;6.10;;;15.30;99.90;;;;;;4991813;28;20676;-71
2023/09/29 04:46:44;;;;;;;5.87;5.33;;;15.40;99.90;;;;;;4991596;28;20693;-74
2023/09/29 04:49:10;;;;;;;6.03;5.00;;;15.40;99.90;;;;;;4990065;28;20561;-71
2023/09/29 04:51:39;;;;;;;7.50;6.00;;;15.40;99.90;;;;;;4991095;28;20445;-74
2023/09/29 04:54:04;;;;;;;7.27;5.97;;;15.50;99.90;;;;;;4988810;28;20994;-74
2023/09/29 04:56:31;;;;;;;6.83;5.80;;;15.50;99.90;;;;;;4990872;28;20478;-75
2023/09/29 04:58:57;;;;;;;6.50;5.03;;;15.50;99.90;;;;;;4989020;28;20417;-74
2023/09/29 05:01:24;;;;;;;7.13;6.43;;;15.50;99.90;;;;;;4990338;28;20439;-74
2023/09/29 05:03:51;;;;;;;6.50;5.53;;;15.40;99.90;;;;;;4989327;28;20254;-74
2023/09/29 05:06:17;;;;;;;7.13;5.70;;;15.50;99.90;;;;;;4990873;28;20434;-73
2023/09/29 05:08:44;;;;;;;6.43;5.10;;;15.50;99.90;;;;;;4992711;28;20522;-74
2023/09/29 05:11:19;;;;;;;6.50;5.60;;;15.50;99.90;;;;;;4995265;28;21011;-74
2023/09/29 05:13:45;;;;;;;6.33;5.73;;;15.80;99.90;;;;;;4988765;28;20478;-73
2023/09/29 05:16:10;;;;;;;5.83;5.30;;;15.50;99.90;;;;;;4988099;28;20448;-71
2023/09/29 05:18:36;;;;;;;5.97;5.47;;;15.50;99.90;;;;;;4989997;28;20235;-73
2023/09/29 05:21:02;;;;;;;6.13;5.63;;;15.50;99.90;;;;;;4999845;28;20175;-73
2023/09/29 05:23:27;;;;;;;7.03;6.43;;;15.60;99.90;;;;;;5003051;28;20195;-73
2023/09/29 05:25:52;;;;;;;6.60;5.90;;;15.60;99.90;;;;;;4990849;28;20682;-73
2023/09/29 05:28:18;;;;;;;6.70;6.00;;;15.70;99.90;;;;;;4986545;28;20190;-73
2023/09/29 05:30:53;;;;;;;8.10;7.30;;;15.80;99.90;;;;;;4989348;28;20183;-73
2023/09/29 05:33:19;;;;;;;8.10;6.90;;;15.90;99.90;;;;;;4986708;28;20262;-73
2023/09/29 05:35:46;;;;;;;6.57;5.60;;;16.00;99.90;;;;;;4986583;28;20442;-73
2023/09/29 05:38:11;;;;;;;7.60;6.07;;;16.10;99.90;;;;;;4982586;28;20175;-73
2023/09/29 05:40:38;;;;;;;7.43;6.77;;;16.10;99.90;;;;;;4983485;28;20439;-73
2023/09/29 05:43:04;;;;;;;10.63;9.10;;;16.10;99.90;;;;;;4982748;28;20290;-73
2023/09/29 05:45:30;;;;;;;11.03;7.67;;;16.20;99.90;;;;;;4982640;28;20470;-73
2023/09/29 05:47:56;;;;;;;6.93;6.23;;;16.40;99.90;;;;;;4985796;28;21095;-73
2023/09/29 05:50:21;;;;;;;6.23;5.63;;;16.40;99.90;;;;;;4983294;28;20182;-73
2023/09/29 05:52:47;;;;;;;19.10;13.60;;;16.50;99.90;;;;;;4993344;28;20557;-73
2023/09/29 05:55:13;;;;;;;7.43;6.33;;;16.70;99.90;;;;;;4992016;28;20197;-73
2023/09/29 05:57:39;;;;;;;9.90;6.30;;;16.80;99.90;;;;;;4994840;28;20501;-73
2023/09/29 06:00:05;;;;;;;7.23;6.47;;;17.00;99.90;;;;;;4982519;28;20560;-73
2023/09/29 06:02:31;;;;;;;8.70;6.53;;;17.20;99.90;;;;;;4981497;28;20315;-72
2023/09/29 06:04:56;;;;;;;7.47;6.60;;;17.40;99.90;;;;;;4984682;28;21760;-75
2023/09/29 06:07:23;;;;;;;6.67;6.03;;;17.50;99.90;;;;;;4980999;28;20616;-75
2023/09/29 06:09:48;;;;;;;8.37;6.20;;;17.70;99.90;;;;;;4989056;28;20175;-74
2023/09/29 06:12:14;;;;;;;13.03;6.67;;;17.90;99.90;;;;;;4988501;28;20984;-74
2023/09/29 06:14:39;;;;;;;8.00;6.53;;;18.00;99.90;;;;;;4986268;28;20729;-74
2023/09/29 06:17:05;;;;;;;6.83;6.10;;;18.00;99.90;;;;;;4984629;28;20187;-74
2023/09/29 06:19:30;;;;;;;8.17;7.37;;;18.00;99.90;;;;;;4981600;28;20183;-74
2023/09/29 06:21:56;;;;;;;9.93;6.30;;;18.00;99.90;;;;;;4984029;28;20258;-74
2023/09/29 06:24:21;;;;;;;6.77;6.17;;;18.00;99.90;;;;;;4984184;28;20653;-74
2023/09/29 06:26:47;;;;;;;7.90;7.00;;;18.10;99.90;;;;;;4983539;28;20219;-74
2023/09/29 06:29:12;;;;;;;12.20;5.80;;;18.20;99.90;;;;;;4982611;28;20192;-74
2023/09/29 06:31:38;;;;;;;7.40;6.70;;;18.30;99.90;;;;;;4987440;28;20200;-74
2023/09/29 06:34:04;;;;;;;6.27;5.67;;;18.40;99.90;;;;;;4981365;28;20211;-75
2023/09/29 06:36:30;;;;;;;8.17;6.80;;;18.40;99.90;;;;;;4986020;28;20430;-74
2023/09/29 06:38:56;;;;;;;9.83;6.80;;;18.60;99.90;;;;;;4987704;28;20184;-74
2023/09/29 06:41:23;;;;;;;6.60;6.10;;;18.70;99.90;;;;;;4987001;28;20190;-72
2023/09/29 06:43:49;;;;;;;7.17;5.70;;;18.70;99.90;;;;;;4986246;28;20605;-74
2023/09/29 06:46:15;;;;;;;8.00;7.20;;;18.80;99.90;;;;;;4982258;28;20446;-74
2023/09/29 06:48:42;;;;;;;9.10;8.00;;;19.00;99.90;;;;;;4980937;28;20458;-68
2023/09/29 06:51:08;;;;;;;9.90;9.00;;;19.10;99.90;;;;;;4983745;28;20310;-66
2023/09/29 06:53:33;;;;;;;8.50;7.70;;;19.20;99.90;;;;;;4983725;28;20573;-66
2023/09/29 06:55:59;;;;;;;7.50;6.73;;;19.30;99.90;;;;;;4993364;28;20180;-64
2023/09/29 06:58:24;;;;;;;7.53;6.80;;;19.20;99.90;;;;;;4988123;28;20180;-66
2023/09/29 07:00:51;;;;;;;8.67;7.77;;;19.10;99.90;;;;;;4985739;28;20180;-67
2023/09/29 07:03:17;;;;;;;8.80;6.93;;;19.00;99.90;;;;;;4987938;28;20238;-67
2023/09/29 07:05:43;;;;;;;8.10;7.30;;;19.00;99.90;;;;;;4991455;28;20442;-68
2023/09/29 07:08:09;;;;;;;9.70;6.77;;;19.00;99.90;;;;;;4993693;28;20971;-66
2023/09/29 07:10:34;;;;;;;9.93;7.70;;;19.00;99.90;;;;;;5007331;28;20191;-68
2023/09/29 07:13:00;;;;;;;7.23;5.80;;;19.10;99.90;;;;;;4991795;28;20223;-68
2023/09/29 07:15:26;;;;;;;8.20;7.17;;;19.30;99.90;;;;;;4993440;28;20646;-67
2023/09/29 07:17:51;;;;;;;6.40;5.80;;;19.30;99.90;;;;;;4976593;28;20500;-67
2023/09/29 07:20:17;;;;;;;7.00;6.30;;;19.30;99.90;;;;;;4988022;28;20176;-66
2023/09/29 07:22:43;;;;;;;7.13;6.23;;;19.40;99.90;;;;;;4992929;28;20187;-66
2023/09/29 07:25:09;;;;;;;7.17;6.20;;;19.60;99.90;;;;;;4990855;28;20438;-65
2023/09/29 07:27:35;;;;;;;7.67;6.27;;;19.70;99.90;;;;;;4994858;28;20692;-67
2023/09/29 07:30:02;;;;;;;7.60;6.17;;;19.70;99.90;;;;;;4995723;28;20180;-67
2023/09/29 07:32:27;;;;;;;7.43;5.90;;;19.70;99.90;;;;;;4998383;28;20442;-67
2023/09/29 07:34:53;;;;;;;5.43;4.93;;;19.80;99.90;;;;;;4994818;28;20469;-68
2023/09/29 07:37:18;;;;;;;8.23;5.80;;;19.70;99.90;;;;;;5002933;28;20219;-67
2023/09/29 07:39:44;;;;;;;6.40;5.47;;;19.70;99.90;;;;;;5009801;28;20214;-68
2023/09/29 07:42:09;;;;;;;10.20;5.73;;;19.70;99.90;;;;;;4990422;28;20258;-68
2023/09/29 07:44:35;;;;;;;6.23;5.63;;;19.80;99.90;;;;;;4993699;28;20191;-66
2023/09/29 07:47:01;;;;;;;7.97;5.70;;;20.00;99.90;;;;;;4993253;28;20191;-67
2023/09/29 07:49:26;;;;;;;10.93;6.60;;;20.10;99.90;;;;;;4995731;28;20866;-66
2023/09/29 07:51:52;;;;;;;7.80;6.53;;;20.10;99.90;;;;;;4993671;28;20620;-67
2023/09/29 07:54:20;;;;;;;6.90;6.30;;;20.20;99.90;;;;;;5003373;28;20211;-67
2023/09/29 07:56:49;;;;;;;6.60;5.80;;;20.30;99.90;;;;;;4994155;28;20172;-67
2023/09/29 07:59:15;;;;;;;7.20;5.90;;;20.50;99.90;;;;;;4996137;28;20439;-68
2023/09/29 08:01:43;;;;;;;9.57;5.50;;;20.60;99.90;;;;;;4991852;28;20442;-67
2023/09/29 08:04:09;;;;;;;8.10;6.07;;;20.70;99.90;;;;;;5001799;28;20457;-66
2023/09/29 08:06:35;;;;;;;9.93;5.90;;;20.80;99.90;;;;;;4994685;28;20560;-66
2023/09/29 08:09:01;;;;;;;6.47;5.80;;;21.00;99.90;;;;;;4992799;28;20513;-66
2023/09/29 08:11:27;;;;;;;5.53;5.03;;;21.40;99.90;;;;;;4998943;28;20916;-67
2023/09/29 08:13:53;;;;;;;7.10;5.60;;;21.80;99.90;;;;;;4994360;28;20533;-66
2023/09/29 08:16:20;;;;;;;7.43;5.73;;;21.90;99.90;;;;;;5000913;28;20262;-67
2023/09/29 08:18:45;;;;;;;9.27;4.90;;;21.80;99.90;;;;;;5001803;28;20425;-66
2023/09/29 08:21:11;;;;;;;5.97;4.60;;;21.80;99.90;;;;;;4990182;28;20430;-66
2023/09/29 08:23:39;;;;;;;5.83;5.23;;;22.00;99.90;;;;;;4990008;28;20462;-67
2023/09/29 08:26:04;;;;;;;6.73;5.20;;;22.50;99.90;;;;;;4994230;28;20647;-65
2023/09/29 08:28:30;;;;;;;15.80;5.90;;;23.10;99.90;;;;;;5012770;28;20520;-67
2023/09/29 08:30:55;;;;;;;6.07;5.47;;;23.40;99.90;;;;;;5005708;28;20171;-66
2023/09/29 08:33:22;;;;;;;5.77;5.33;;;23.40;99.90;;;;;;4991869;28;20221;-66
2023/09/29 08:35:47;;;;;;;6.43;5.93;;;23.40;99.90;;;;;;4994602;28;20219;-66
2023/09/29 08:38:13;;;;;;;6.47;5.17;;;23.20;99.90;;;;;;5001548;28;20819;-66
2023/09/29 08:40:39;;;;;;;4.87;4.47;;;23.20;99.90;;;;;;4989978;28;20176;-68
2023/09/29 08:43:06;;;;;;;6.57;4.60;;;23.30;99.90;;;;;;4989654;28;20207;-67
2023/09/29 08:45:32;;;;;;;7.90;7.20;;;23.60;99.90;;;;;;4998907;28;20442;-66
2023/09/29 08:47:59;;;;;;;5.23;4.83;;;24.80;99.90;;;;;;4997487;28;20442;-66
2023/09/29 08:50:25;;;;;;;4.97;4.57;;;26.50;99.90;;;;;;4994556;28;20439;-70
2023/09/29 08:52:52;;;;;;;4.50;4.20;;;27.80;96.90;;;;;;4993072;28;20458;-69
2023/09/29 08:55:19;;;;;;;4.70;4.30;;;28.30;91.80;;;;;;4991235;28;20175;-69
2023/09/29 08:57:45;;;;;;;6.63;4.63;;;29.60;89.80;;;;;;4994476;28;20426;-69
2023/09/29 09:00:15;;;;;;;6.63;4.63;;;30.40;82.10;;;;;;4996480;28;20453;-66
2023/09/29 09:02:43;;;;;;;5.23;4.30;;;31.20;76.20;;;;;;4986862;28;20200;-67
2023/09/29 09:05:12;;;;;;;4.47;4.07;;;32.70;68.00;;;;;;5001057;28;20469;-66
2023/09/29 09:07:41;;;;;;;4.47;4.07;;;33.00;58.50;;;;;;4998851;28;20473;-66
2023/09/29 09:10:09;;;;;;;4.90;4.50;;;32.60;56.70;;;;;;4994960;28;20497;-66
2023/09/29 09:12:36;;;;;;;4.83;3.90;;;32.00;55.90;;;;;;4991862;28;20533;-66
2023/09/29 09:15:04;;;;;;;4.20;3.90;;;31.80;55.50;;;;;;4992016;28;20458;-67
2023/09/29 09:17:31;;;;;;;4.33;4.03;;;32.00;54.60;;;;;;4992266;28;20518;-66
2023/09/29 09:19:56;;;;;;;4.83;4.30;;;31.90;54.10;;;;;;4992270;28;20448;-66
2023/09/29 09:22:25;;;;;;;4.67;3.70;;;32.20;53.10;;;;;;4987030;28;20468;-66
2023/09/29 09:25:00;;;;;;;4.13;3.80;;;31.80;52.50;;;;;;4996468;28;20240;-66
2023/09/29 09:27:26;;;;;;;4.63;4.20;;;31.60;52.20;;;;;;4999683;28;20547;-66
2023/09/29 09:29:52;;;;;;;4.83;4.43;;;31.10;52.60;;;;;;4991682;28;20514;-66
2023/09/29 09:32:27;;;;;;;5.03;4.63;;;30.20;53.60;;;;;;4992148;28;20549;-66
2023/09/29 09:34:53;;;;;;;4.40;4.10;;;29.40;55.50;;;;;;4993782;28;20453;-64
2023/09/29 09:37:26;;;;;;;4.43;4.03;;;29.20;56.00;;;;;;4984554;28;20917;-66
2023/09/29 09:39:55;;;;;;;3.90;3.60;;;29.10;57.20;;;;;;4990410;28;20446;-67
2023/09/29 09:42:25;;;;;;;3.93;3.63;;;29.70;56.90;;;;;;4989416;28;20531;-69
2023/09/29 09:44:50;;;;;;;5.43;3.50;;;29.70;56.10;;;;;;4991191;28;20843;-67
2023/09/29 09:47:18;;;;;;;5.27;3.50;;;29.70;56.00;;;;;;4997876;28;20430;-67
2023/09/29 09:49:48;;;;;;;4.33;3.93;;;29.30;55.90;;;;;;4986258;28;20275;-67
2023/09/29 09:52:24;;;;;;;5.40;4.33;;;28.90;56.60;;;;;;4988291;28;20549;-67
2023/09/29 09:54:52;;;;;;;3.50;3.20;;;28.40;57.90;;;;;;4996239;28;20463;-69
2023/09/29 09:57:34;;;;;;;3.93;3.50;;;28.10;58.20;;;;;;4991286;28;20801;-66
2023/09/29 10:00:08;;;;;;;5.97;3.70;;;27.90;58.40;;;;;;4998533;28;20430;-67
2023/09/29 10:02:41;;;;;;;4.67;3.97;;;27.90;59.10;;;;;;4987181;28;20858;-67
2023/09/29 10:05:22;;;;;;;5.80;4.57;;;28.20;59.10;;;;;;4997374;28;20480;-67
2023/09/29 10:07:53;;;;;;;4.03;3.60;;;28.30;58.80;;;;;;4997239;28;20434;-66
2023/09/29 10:10:36;;;;;;;4.30;3.77;;;28.90;58.80;;;;;;4991146;28;20968;-63
2023/09/29 10:13:04;;;;;;;4.77;3.53;;;28.60;58.50;;;;;;4986277;28;20851;-63
2023/09/29 10:15:29;;;;;;;4.90;3.27;;;28.00;59.70;;;;;;4989550;28;20439;-63
2023/09/29 10:17:57;;;;;;;4.20;3.80;;;28.20;60.50;;;;;;4980147;28;20424;-62
2023/09/29 10:20:24;;;;;;;7.43;4.10;;;28.50;60.40;;;;;;4978121;28;20178;-62
2023/09/29 10:23:06;;;;;;;5.37;4.87;;;28.70;59.90;;;;;;4985401;28;20472;-62
2023/09/29 10:25:34;;;;;;;4.53;4.13;;;28.80;59.20;;;;;;4990365;28;20449;-62
2023/09/29 10:28:01;;;;;;;5.17;4.37;;;28.90;59.40;;;;;;4993882;28;20439;-63
2023/09/29 10:30:27;;;;;;;5.03;4.53;;;29.90;58.00;;;;;;4989186;28;20420;-64
2023/09/29 10:33:12;;;;;;;4.40;4.00;;;31.50;55.30;;;;;;4980718;28;20522;-65
2023/09/29 10:35:45;;;;;;;4.77;3.90;;;33.10;52.70;;;;;;4978790;28;20207;-68
2023/09/29 10:38:22;;;;;;;4.30;3.90;;;35.20;48.90;;;;;;4990082;28;20438;-68
2023/09/29 10:40:49;;;;;;;5.23;3.77;;;35.50;47.00;;;;;;4988345;28;20430;-68
2023/09/29 10:43:24;;;;;;;4.20;3.80;;;36.60;44.20;;;;;;4988951;28;20810;-68
2023/09/29 10:45:50;;;;;;;4.13;3.83;;;36.10;43.90;;;;;;4989569;28;20534;-68
2023/09/29 10:48:23;;;;;;;4.17;3.83;;;36.10;42.70;;;;;;4986784;28;20867;-68
2023/09/29 10:50:49;;;;;;;5.53;3.53;;;36.30;42.90;;;;;;4978974;28;20430;-68
2023/09/29 10:53:16;;;;;;;4.07;3.80;;;36.50;42.20;;;;;;4982015;28;20474;-67
2023/09/29 10:55:49;;;;;;;3.80;3.50;;;35.60;42.30;;;;;;4986235;28;20441;-64
2023/09/29 10:58:18;;;;;;;6.10;3.70;;;35.40;42.70;;;;;;4992360;28;20949;-65
2023/09/29 11:00:46;;;;;;;4.03;3.73;;;35.30;42.80;;;;;;4992760;28;20534;-68
2023/09/29 11:03:13;;;;;;;6.27;4.30;;;35.20;43.20;;;;;;4988640;28;20494;-67
2023/09/29 11:05:50;;;;;;;4.97;4.47;;;35.50;42.50;;;;;;4989023;28;20888;-68
2023/09/29 11:08:19;;;;;;;5.77;4.70;;;35.90;42.80;;;;;;4995354;28;20449;-67
2023/09/29 11:11:00;;;;;;;4.67;4.23;;;35.50;42.70;;;;;;4983060;28;20439;-67
2023/09/29 11:13:27;;;;;;;4.67;4.27;;;35.20;42.60;;;;;;4999566;28;21046;-67
2023/09/29 11:15:53;;;;;;;4.80;4.40;;;34.60;43.80;;;;;;5000442;28;20461;-67
2023/09/29 11:18:30;;;;;;;4.13;3.83;;;35.60;43.50;;;;;;5008702;28;20477;-68
2023/09/29 11:20:58;;;;;;;5.03;4.50;;;36.00;42.60;;;;;;5001278;28;20466;-67
2023/09/29 11:23:24;;;;;;;5.87;4.40;;;36.00;42.80;;;;;;5001093;28;20462;-68
2023/09/29 11:25:56;;;;;;;5.03;4.63;;;37.40;41.70;;;;;;4989287;28;20435;-67
2023/09/29 11:28:22;;;;;;;4.87;4.13;;;36.30;41.50;;;;;;4993733;28;20422;-68
2023/09/29 11:30:48;;;;;;;7.70;4.43;;;36.90;41.80;;;;;;4993703;28;20488;-68
2023/09/29 11:33:17;;;;;;;4.60;4.30;;;37.90;40.50;;;;;;4994330;28;20253;-68
2023/09/29 11:35:45;;;;;;;4.80;4.40;;;39.10;40.10;;;;;;4992903;28;20438;-68
2023/09/29 11:38:19;;;;;;;4.60;3.97;;;40.50;37.10;;;;;;4993582;28;20430;-68
2023/09/29 11:40:48;;;;;;;4.23;3.87;;;40.80;36.20;;;;;;4993687;28;20935;-68
2023/09/29 11:43:14;;;;;;;4.20;3.80;;;39.00;37.00;;;;;;4999586;28;20458;-68
2023/09/29 11:45:40;;;;;;;4.90;3.90;;;38.20;37.60;;;;;;4984664;28;20438;-68
2023/09/29 11:48:06;;;;;;;8.30;3.90;;;38.00;37.90;;;;;;4993024;28;20764;-67
2023/09/29 11:50:33;;;;;;;4.03;3.73;;;37.00;39.00;;;;;;4995178;28;20178;-67
2023/09/29 11:53:01;;;;;;;8.70;4.73;;;36.50;39.50;;;;;;4994812;28;20329;-67
2023/09/29 11:55:27;;;;;;;5.07;3.63;;;36.70;39.90;;;;;;4993180;28;20521;-67
2023/09/29 11:57:53;;;;;;;4.77;4.37;;;37.00;39.10;;;;;;4995087;28;20450;-67
2023/09/29 12:00:19;;;;;;;5.77;4.03;;;37.30;38.50;;;;;;4995146;28;20251;-67
2023/09/29 12:02:45;;;;;;;9.20;4.43;;;37.20;38.50;;;;;;4994550;28;21043;-67
2023/09/29 12:05:11;;;;;;;4.93;3.97;;;38.10;37.90;;;;;;4991679;28;20175;-67
2023/09/29 12:07:37;;;;;;;4.90;4.60;;;38.40;37.30;;;;;;4994940;28;20406;-67
2023/09/29 12:10:03;;;;;;;5.87;4.53;;;39.50;36.40;;;;;;4994883;28;20182;-67
2023/09/29 12:12:31;;;;;;;4.97;4.53;;;38.20;36.40;;;;;;4994752;28;20322;-67
2023/09/29 12:14:56;;;;;;;5.03;3.73;;;38.00;36.60;;;;;;4992664;28;20517;-67
2023/09/29 12:17:22;;;;;;;5.00;4.60;;;37.20;37.30;;;;;;4994442;28;20830;-67
2023/09/29 12:19:48;;;;;;;5.03;3.93;;;37.60;37.00;;;;;;4994687;28;20164;-67
2023/09/29 12:22:14;;;;;;;5.40;4.93;;;37.60;36.70;;;;;;4994644;28;20207;-67
2023/09/29 12:24:39;;;;;;;4.27;3.97;;;38.10;36.20;;;;;;4992265;28;20229;-68
2023/09/29 12:27:08;;;;;;;5.80;4.47;;;38.90;36.10;;;;;;4994375;28;20652;-67
2023/09/29 12:29:34;;;;;;;5.60;3.90;;;39.30;35.20;;;;;;4993263;28;20179;-67
2023/09/29 12:32:00;;;;;;;4.37;3.97;;;39.80;34.90;;;;;;4994311;28;20422;-68
2023/09/29 12:34:28;;;;;;;3.77;3.47;;;39.80;34.70;;;;;;4992609;28;20830;-67
2023/09/29 12:36:54;;;;;;;4.83;4.43;;;38.90;34.90;;;;;;4994409;28;20160;-67
2023/09/29 12:39:19;;;;;;;4.13;3.83;;;39.50;35.10;;;;;;4994325;28;20454;-68
2023/09/29 12:41:45;;;;;;;4.50;4.20;;;40.50;33.90;;;;;;4994313;28;20187;-67
2023/09/29 12:44:10;;;;;;;3.60;3.40;;;40.80;33.50;;;;;;4992722;28;20235;-67